sensor_id;sensor_type;location;lat;lon;timestamp;temperature;humidity
21459;DHT22;10891;49.350;19.386;2022-12-26T00:00:28;6.50;99.90
21459;DHT22;10891;49.350;19.386;2022-12-26T00:02:55;6.50;99.90
21459;DHT22;10891;49.350;19.386;2022-12-26T00:05:24;6.50;99.90
21459;DHT22;10891;49.350;19.386;2022-12-26T00:07:50;6.50;99.90
21459;DHT22;10891;49.350;19.386;2022-12-26T00:10:17;6.60;99.90
21459;DHT22;10891;49.350;19.386;2022-12-26T00:12:44;6.60;99.90
21459;DHT22;10891;49.350;19.386;2022-12-26T00:15:11;6.70;99.90
21459;DHT22;10891;49.350;19.386;2022-12-26T00:17:38;6.70;99.90
21459;DHT22;10891;49.350;19.386;2022-12-26T00:20:06;6.60;99.90
21459;DHT22;10891;49.350;19.386;2022-12-26T00:22:34;6.60;99.90
21459;DHT22;10891;49.350;19.386;2022-12-26T00:25:01;6.70;99.90
21459;DHT22;10891;49.350;19.386;2022-12-26T00:27:28;6.70;99.90
21459;DHT22;10891;49.350;19.386;2022-12-26T00:29:55;6.70;99.90
21459;DHT22;10891;49.350;19.386;2022-12-26T00:32:22;6.70;99.90
21459;DHT22;10891;49.350;19.386;2022-12-26T00:34:49;6.80;99.90
21459;DHT22;10891;49.350;19.386;2022-12-26T00:37:16;6.80;99.90
21459;DHT22;10891;49.350;19.386;2022-12-26T00:39:44;6.80;99.90
21459;DHT22;10891;49.350;19.386;2022-12-26T00:42:11;6.80;99.90
21459;DHT22;10891;49.350;19.386;2022-12-26T00:44:37;6.80;99.90
21459;DHT22;10891;49.350;19.386;2022-12-26T00:47:04;6.80;99.90
21459;DHT22;10891;49.350;19.386;2022-12-26T00:49:31;6.80;99.90
21459;DHT22;10891;49.350;19.386;2022-12-26T00:51:58;6.80;99.90
21459;DHT22;10891;49.350;19.386;2022-12-26T00:54:25;6.70;99.90
21459;DHT22;10891;49.350;19.386;2022-12-26T00:56:53;6.80;99.90
21459;DHT22;10891;49.350;19.386;2022-12-26T00:59:20;6.70;99.90
21459;DHT22;10891;49.350;19.386;2022-12-26T01:01:47;6.70;99.90
21459;DHT22;10891;49.350;19.386;2022-12-26T01:04:14;6.70;99.90
21459;DHT22;10891;49.350;19.386;2022-12-26T01:06:41;6.70;99.90
21459;DHT22;10891;49.350;19.386;2022-12-26T01:09:08;6.80;99.90
21459;DHT22;10891;49.350;19.386;2022-12-26T01:11:36;6.70;99.90
21459;DHT22;10891;49.350;19.386;2022-12-26T01:14:09;6.70;99.90
21459;DHT22;10891;49.350;19.386;2022-12-26T01:16:37;6.70;99.90
21459;DHT22;10891;49.350;19.386;2022-12-26T01:19:04;6.70;99.90
21459;DHT22;10891;49.350;19.386;2022-12-26T01:21:32;6.70;99.90
21459;DHT22;10891;49.350;19.386;2022-12-26T01:23:59;6.70;99.90
21459;DHT22;10891;49.350;19.386;2022-12-26T01:26:26;6.70;99.90
21459;DHT22;10891;49.350;19.386;2022-12-26T01:28:53;6.70;99.90
21459;DHT22;10891;49.350;19.386;2022-12-26T01:31:22;6.70;99.90
21459;DHT22;10891;49.350;19.386;2022-12-26T01:33:49;6.60;99.90
21459;DHT22;10891;49.350;19.386;2022-12-26T01:36:16;6.60;99.90
21459;DHT22;10891;49.350;19.386;2022-12-26T01:38:43;6.60;99.90
21459;DHT22;10891;49.350;19.386;2022-12-26T01:41:10;6.60;99.90
21459;DHT22;10891;49.350;19.386;2022-12-26T01:43:52;6.60;99.90
21459;DHT22;10891;49.350;19.386;2022-12-26T01:46:25;6.60;99.90
21459;DHT22;10891;49.350;19.386;2022-12-26T01:48:53;6.60;99.90
21459;DHT22;10891;49.350;19.386;2022-12-26T01:51:23;6.60;99.90
21459;DHT22;10891;49.350;19.386;2022-12-26T01:53:54;6.50;99.90
21459;DHT22;10891;49.350;19.386;2022-12-26T01:56:25;6.50;99.90
21459;DHT22;10891;49.350;19.386;2022-12-26T01:58:57;6.50;99.90
21459;DHT22;10891;49.350;19.386;2022-12-26T02:01:30;6.60;99.90
21459;DHT22;10891;49.350;19.386;2022-12-26T02:03:58;6.60;99.90
21459;DHT22;10891;49.350;19.386;2022-12-26T02:06:58;6.60;99.90
21459;DHT22;10891;49.350;19.386;2022-12-26T02:09:25;6.60;99.90
21459;DHT22;10891;49.350;19.386;2022-12-26T02:11:55;6.70;99.90
21459;DHT22;10891;49.350;19.386;2022-12-26T02:14:24;6.70;99.90
21459;DHT22;10891;49.350;19.386;2022-12-26T02:16:53;6.80;99.90
21459;DHT22;10891;49.350;19.386;2022-12-26T02:19:28;6.80;99.90
21459;DHT22;10891;49.350;19.386;2022-12-26T02:22:12;6.80;99.90
21459;DHT22;10891;49.350;19.386;2022-12-26T02:25:08;6.80;99.90
21459;DHT22;10891;49.350;19.386;2022-12-26T02:28:03;6.80;99.90
21459;DHT22;10891;49.350;19.386;2022-12-26T02:30:42;6.80;99.90
21459;DHT22;10891;49.350;19.386;2022-12-26T02:33:26;6.80;99.90
21459;DHT22;10891;49.350;19.386;2022-12-26T02:36:27;6.80;99.90
21459;DHT22;10891;49.350;19.386;2022-12-26T02:39:06;6.80;99.90
21459;DHT22;10891;49.350;19.386;2022-12-26T02:41:44;6.80;99.90
21459;DHT22;10891;49.350;19.386;2022-12-26T02:44:20;6.80;99.90
21459;DHT22;10891;49.350;19.386;2022-12-26T02:47:12;6.80;99.90
21459;DHT22;10891;49.350;19.386;2022-12-26T02:50:00;6.90;99.90
21459;DHT22;10891;49.350;19.386;2022-12-26T02:52:55;6.80;99.90
21459;DHT22;10891;49.350;19.386;2022-12-26T02:55:43;6.80;99.90
21459;DHT22;10891;49.350;19.386;2022-12-26T02:58:34;6.80;99.90
21459;DHT22;10891;49.350;19.386;2022-12-26T03:01:25;6.80;99.90
21459;DHT22;10891;49.350;19.386;2022-12-26T03:04:15;6.80;99.90
21459;DHT22;10891;49.350;19.386;2022-12-26T03:07:04;6.90;99.90
21459;DHT22;10891;49.350;19.386;2022-12-26T03:09:54;6.90;99.90
21459;DHT22;10891;49.350;19.386;2022-12-26T03:12:54;6.90;99.90
21459;DHT22;10891;49.350;19.386;2022-12-26T03:15:40;6.90;99.90
21459;DHT22;10891;49.350;19.386;2022-12-26T03:18:27;6.90;99.90
21459;DHT22;10891;49.350;19.386;2022-12-26T03:20:56;6.90;99.90
21459;DHT22;10891;49.350;19.386;2022-12-26T03:23:23;6.90;99.90
21459;DHT22;10891;49.350;19.386;2022-12-26T03:25:53;6.90;99.90
21459;DHT22;10891;49.350;19.386;2022-12-26T03:28:38;6.90;99.90
21459;DHT22;10891;49.350;19.386;2022-12-26T03:31:07;6.90;99.90
21459;DHT22;10891;49.350;19.386;2022-12-26T03:33:36;6.90;99.90
21459;DHT22;10891;49.350;19.386;2022-12-26T03:36:31;6.90;99.90
21459;DHT22;10891;49.350;19.386;2022-12-26T03:39:08;6.90;99.90
21459;DHT22;10891;49.350;19.386;2022-12-26T03:41:43;6.90;99.90
21459;DHT22;10891;49.350;19.386;2022-12-26T03:44:35;6.80;99.90
21459;DHT22;10891;49.350;19.386;2022-12-26T03:47:26;6.80;99.90
21459;DHT22;10891;49.350;19.386;2022-12-26T03:50:21;6.80;99.90
21459;DHT22;10891;49.350;19.386;2022-12-26T03:53:16;6.80;99.90
21459;DHT22;10891;49.350;19.386;2022-12-26T03:56:07;6.80;99.90
21459;DHT22;10891;49.350;19.386;2022-12-26T03:58:58;6.80;99.90
21459;DHT22;10891;49.350;19.386;2022-12-26T04:01:45;6.70;99.90
21459;DHT22;10891;49.350;19.386;2022-12-26T04:04:32;6.70;99.90
21459;DHT22;10891;49.350;19.386;2022-12-26T04:07:21;6.70;99.90
21459;DHT22;10891;49.350;19.386;2022-12-26T04:10:14;6.70;99.90
21459;DHT22;10891;49.350;19.386;2022-12-26T04:13:02;6.70;99.90
21459;DHT22;10891;49.350;19.386;2022-12-26T04:15:54;6.70;99.90
21459;DHT22;10891;49.350;19.386;2022-12-26T04:18:42;6.70;99.90
21459;DHT22;10891;49.350;19.386;2022-12-26T04:21:30;6.70;99.90
21459;DHT22;10891;49.350;19.386;2022-12-26T04:24:21;6.70;99.90
21459;DHT22;10891;49.350;19.386;2022-12-26T04:27:11;6.60;99.90
21459;DHT22;10891;49.350;19.386;2022-12-26T04:29:56;6.60;99.90
21459;DHT22;10891;49.350;19.386;2022-12-26T04:32:43;6.50;99.90
21459;DHT22;10891;49.350;19.386;2022-12-26T04:35:31;6.50;99.90
21459;DHT22;10891;49.350;19.386;2022-12-26T04:38:19;6.60;99.90
21459;DHT22;10891;49.350;19.386;2022-12-26T04:41:06;6.60;99.90
21459;DHT22;10891;49.350;19.386;2022-12-26T04:43:54;6.60;99.90
21459;DHT22;10891;49.350;19.386;2022-12-26T04:46:37;6.60;99.90
21459;DHT22;10891;49.350;19.386;2022-12-26T04:49:06;6.60;99.90
21459;DHT22;10891;49.350;19.386;2022-12-26T04:51:51;6.50;99.90
21459;DHT22;10891;49.350;19.386;2022-12-26T04:54:18;6.60;99.90
21459;DHT22;10891;49.350;19.386;2022-12-26T04:56:45;6.50;99.90
21459;DHT22;10891;49.350;19.386;2022-12-26T04:59:13;6.50;99.90
21459;DHT22;10891;49.350;19.386;2022-12-26T05:01:40;6.50;99.90
21459;DHT22;10891;49.350;19.386;2022-12-26T05:04:25;6.40;99.90
21459;DHT22;10891;49.350;19.386;2022-12-26T05:07:15;6.40;99.90
21459;DHT22;10891;49.350;19.386;2022-12-26T05:10:01;6.40;99.90
21459;DHT22;10891;49.350;19.386;2022-12-26T05:12:29;6.30;99.90
21459;DHT22;10891;49.350;19.386;2022-12-26T05:14:57;6.30;99.90
21459;DHT22;10891;49.350;19.386;2022-12-26T05:17:24;6.30;99.90
21459;DHT22;10891;49.350;19.386;2022-12-26T05:20:10;6.20;99.90
21459;DHT22;10891;49.350;19.386;2022-12-26T05:22:55;6.30;99.90
21459;DHT22;10891;49.350;19.386;2022-12-26T05:25:42;6.30;99.90
21459;DHT22;10891;49.350;19.386;2022-12-26T05:28:27;6.30;99.90
21459;DHT22;10891;49.350;19.386;2022-12-26T05:31:12;6.30;99.90
21459;DHT22;10891;49.350;19.386;2022-12-26T05:33:40;6.40;99.90
21459;DHT22;10891;49.350;19.386;2022-12-26T05:36:28;6.40;99.90
21459;DHT22;10891;49.350;19.386;2022-12-26T05:38:56;6.40;99.90
21459;DHT22;10891;49.350;19.386;2022-12-26T05:41:23;6.40;99.90
21459;DHT22;10891;49.350;19.386;2022-12-26T05:43:50;6.40;99.90
21459;DHT22;10891;49.350;19.386;2022-12-26T05:46:18;6.40;99.90
21459;DHT22;10891;49.350;19.386;2022-12-26T05:48:45;6.50;99.90
21459;DHT22;10891;49.350;19.386;2022-12-26T05:51:12;6.50;99.90
21459;DHT22;10891;49.350;19.386;2022-12-26T05:53:39;6.50;99.90
21459;DHT22;10891;49.350;19.386;2022-12-26T05:56:09;6.70;99.90
21459;DHT22;10891;49.350;19.386;2022-12-26T05:58:36;6.70;99.90
21459;DHT22;10891;49.350;19.386;2022-12-26T06:01:06;6.80;99.90
21459;DHT22;10891;49.350;19.386;2022-12-26T06:03:34;6.80;99.90
21459;DHT22;10891;49.350;19.386;2022-12-26T06:06:02;6.80;99.90
21459;DHT22;10891;49.350;19.386;2022-12-26T06:08:29;6.80;99.90
21459;DHT22;10891;49.350;19.386;2022-12-26T06:10:56;6.80;99.90
21459;DHT22;10891;49.350;19.386;2022-12-26T06:13:23;6.90;99.90
21459;DHT22;10891;49.350;19.386;2022-12-26T06:15:50;6.90;99.90
21459;DHT22;10891;49.350;19.386;2022-12-26T06:18:17;6.90;99.90
21459;DHT22;10891;49.350;19.386;2022-12-26T06:20:45;6.90;99.90
21459;DHT22;10891;49.350;19.386;2022-12-26T06:23:12;6.90;99.90
21459;DHT22;10891;49.350;19.386;2022-12-26T06:25:39;6.90;99.90
21459;DHT22;10891;49.350;19.386;2022-12-26T06:28:06;6.80;99.90
21459;DHT22;10891;49.350;19.386;2022-12-26T06:30:33;6.80;99.90
21459;DHT22;10891;49.350;19.386;2022-12-26T06:33:00;6.80;99.90
21459;DHT22;10891;49.350;19.386;2022-12-26T06:35:27;6.80;99.90
21459;DHT22;10891;49.350;19.386;2022-12-26T06:37:55;6.70;99.90
21459;DHT22;10891;49.350;19.386;2022-12-26T06:40:22;6.70;99.90
21459;DHT22;10891;49.350;19.386;2022-12-26T06:42:49;6.60;99.90
21459;DHT22;10891;49.350;19.386;2022-12-26T06:45:16;6.70;99.90
21459;DHT22;10891;49.350;19.386;2022-12-26T06:47:43;6.60;99.90
21459;DHT22;10891;49.350;19.386;2022-12-26T06:50:10;6.60;99.90
21459;DHT22;10891;49.350;19.386;2022-12-26T06:52:38;6.60;99.90
21459;DHT22;10891;49.350;19.386;2022-12-26T06:55:07;6.60;99.90
21459;DHT22;10891;49.350;19.386;2022-12-26T06:57:34;6.60;99.90
21459;DHT22;10891;49.350;19.386;2022-12-26T07:00:01;6.60;99.90
21459;DHT22;10891;49.350;19.386;2022-12-26T07:02:28;6.60;99.90
21459;DHT22;10891;49.350;19.386;2022-12-26T07:04:55;6.70;99.90
21459;DHT22;10891;49.350;19.386;2022-12-26T07:07:22;6.70;99.90
21459;DHT22;10891;49.350;19.386;2022-12-26T07:09:49;6.70;99.90
21459;DHT22;10891;49.350;19.386;2022-12-26T07:12:18;6.80;99.90
21459;DHT22;10891;49.350;19.386;2022-12-26T07:14:46;6.80;99.90
21459;DHT22;10891;49.350;19.386;2022-12-26T07:17:13;6.70;99.90
21459;DHT22;10891;49.350;19.386;2022-12-26T07:19:40;6.70;99.90
21459;DHT22;10891;49.350;19.386;2022-12-26T07:22:07;6.80;99.90
21459;DHT22;10891;49.350;19.386;2022-12-26T07:24:34;6.80;99.90
21459;DHT22;10891;49.350;19.386;2022-12-26T07:27:01;6.70;99.90
21459;DHT22;10891;49.350;19.386;2022-12-26T07:29:30;6.80;99.90
21459;DHT22;10891;49.350;19.386;2022-12-26T07:31:57;6.80;99.90
21459;DHT22;10891;49.350;19.386;2022-12-26T07:34:24;6.80;99.90
21459;DHT22;10891;49.350;19.386;2022-12-26T07:36:52;6.90;99.90
21459;DHT22;10891;49.350;19.386;2022-12-26T07:39:19;6.90;99.90
21459;DHT22;10891;49.350;19.386;2022-12-26T07:41:46;7.00;99.90
21459;DHT22;10891;49.350;19.386;2022-12-26T07:44:27;7.00;99.90
21459;DHT22;10891;49.350;19.386;2022-12-26T07:46:56;7.00;99.90
21459;DHT22;10891;49.350;19.386;2022-12-26T07:49:23;7.00;99.90
21459;DHT22;10891;49.350;19.386;2022-12-26T07:51:50;7.00;99.90
21459;DHT22;10891;49.350;19.386;2022-12-26T07:54:18;7.20;99.90
21459;DHT22;10891;49.350;19.386;2022-12-26T07:56:45;7.20;99.90
21459;DHT22;10891;49.350;19.386;2022-12-26T07:59:13;7.10;99.90
21459;DHT22;10891;49.350;19.386;2022-12-26T08:01:40;7.10;99.90
21459;DHT22;10891;49.350;19.386;2022-12-26T08:04:10;7.10;99.90
21459;DHT22;10891;49.350;19.386;2022-12-26T08:06:37;7.20;99.90
21459;DHT22;10891;49.350;19.386;2022-12-26T08:09:04;7.20;99.90
21459;DHT22;10891;49.350;19.386;2022-12-26T08:11:33;7.20;99.90
21459;DHT22;10891;49.350;19.386;2022-12-26T08:14:01;7.20;99.90
21459;DHT22;10891;49.350;19.386;2022-12-26T08:16:28;7.30;99.90
21459;DHT22;10891;49.350;19.386;2022-12-26T08:18:56;7.30;99.90
21459;DHT22;10891;49.350;19.386;2022-12-26T08:21:24;7.40;99.90
21459;DHT22;10891;49.350;19.386;2022-12-26T08:23:52;7.40;99.90
21459;DHT22;10891;49.350;19.386;2022-12-26T08:26:19;7.50;99.90
21459;DHT22;10891;49.350;19.386;2022-12-26T08:28:48;7.50;99.90
21459;DHT22;10891;49.350;19.386;2022-12-26T08:31:16;7.50;99.90
21459;DHT22;10891;49.350;19.386;2022-12-26T08:33:43;7.50;99.90
21459;DHT22;10891;49.350;19.386;2022-12-26T08:36:11;7.40;99.90
21459;DHT22;10891;49.350;19.386;2022-12-26T08:38:42;7.50;99.90
21459;DHT22;10891;49.350;19.386;2022-12-26T08:41:10;7.70;99.90
21459;DHT22;10891;49.350;19.386;2022-12-26T08:43:38;8.00;99.90
21459;DHT22;10891;49.350;19.386;2022-12-26T08:46:07;8.10;99.90
21459;DHT22;10891;49.350;19.386;2022-12-26T08:48:36;8.30;99.90
21459;DHT22;10891;49.350;19.386;2022-12-26T08:51:06;8.20;99.90
21459;DHT22;10891;49.350;19.386;2022-12-26T08:53:35;8.30;99.90
21459;DHT22;10891;49.350;19.386;2022-12-26T08:56:06;8.30;99.90
21459;DHT22;10891;49.350;19.386;2022-12-26T08:58:34;8.30;99.90
21459;DHT22;10891;49.350;19.386;2022-12-26T09:01:06;8.30;99.90
21459;DHT22;10891;49.350;19.386;2022-12-26T09:03:34;8.30;99.90
21459;DHT22;10891;49.350;19.386;2022-12-26T09:06:02;8.20;99.90
21459;DHT22;10891;49.350;19.386;2022-12-26T09:08:29;8.30;99.90
21459;DHT22;10891;49.350;19.386;2022-12-26T09:11:01;8.30;99.90
21459;DHT22;10891;49.350;19.386;2022-12-26T09:13:31;8.30;99.90
21459;DHT22;10891;49.350;19.386;2022-12-26T09:16:06;8.30;99.90
21459;DHT22;10891;49.350;19.386;2022-12-26T09:18:34;8.20;99.90
21459;DHT22;10891;49.350;19.386;2022-12-26T09:21:01;8.10;99.90
21459;DHT22;10891;49.350;19.386;2022-12-26T09:23:30;8.10;99.90
21459;DHT22;10891;49.350;19.386;2022-12-26T09:26:04;8.10;99.90
21459;DHT22;10891;49.350;19.386;2022-12-26T09:28:34;8.10;99.90
21459;DHT22;10891;49.350;19.386;2022-12-26T09:31:02;7.90;99.90
21459;DHT22;10891;49.350;19.386;2022-12-26T09:33:30;8.00;99.90
21459;DHT22;10891;49.350;19.386;2022-12-26T09:35:58;8.10;99.90
21459;DHT22;10891;49.350;19.386;2022-12-26T09:38:26;8.10;99.90
21459;DHT22;10891;49.350;19.386;2022-12-26T09:41:09;8.10;99.90
21459;DHT22;10891;49.350;19.386;2022-12-26T09:43:52;8.00;99.90
21459;DHT22;10891;49.350;19.386;2022-12-26T09:46:38;7.90;99.90
21459;DHT22;10891;49.350;19.386;2022-12-26T09:49:11;7.90;99.90
21459;DHT22;10891;49.350;19.386;2022-12-26T09:51:41;7.90;99.90
21459;DHT22;10891;49.350;19.386;2022-12-26T09:54:16;7.80;99.90
21459;DHT22;10891;49.350;19.386;2022-12-26T09:56:45;7.90;99.90
21459;DHT22;10891;49.350;19.386;2022-12-26T09:59:17;8.00;99.90
21459;DHT22;10891;49.350;19.386;2022-12-26T10:01:45;7.90;99.90
21459;DHT22;10891;49.350;19.386;2022-12-26T10:04:18;7.90;99.90
21459;DHT22;10891;49.350;19.386;2022-12-26T10:06:49;7.90;99.90
21459;DHT22;10891;49.350;19.386;2022-12-26T10:09:27;7.80;99.90
21459;DHT22;10891;49.350;19.386;2022-12-26T10:12:06;7.70;99.90
21459;DHT22;10891;49.350;19.386;2022-12-26T10:14:50;7.70;99.90
21459;DHT22;10891;49.350;19.386;2022-12-26T10:17:26;7.70;99.90
21459;DHT22;10891;49.350;19.386;2022-12-26T10:20:06;7.70;99.90
21459;DHT22;10891;49.350;19.386;2022-12-26T10:25:46;7.80;99.90
21459;DHT22;10891;49.350;19.386;2022-12-26T10:28:29;7.80;99.90
21459;DHT22;10891;49.350;19.386;2022-12-26T10:31:05;7.90;99.90
21459;DHT22;10891;49.350;19.386;2022-12-26T10:33:38;7.90;99.90
21459;DHT22;10891;49.350;19.386;2022-12-26T10:36:11;8.00;99.90
21459;DHT22;10891;49.350;19.386;2022-12-26T10:38:43;8.10;99.90
21459;DHT22;10891;49.350;19.386;2022-12-26T10:41:16;8.20;99.90
21459;DHT22;10891;49.350;19.386;2022-12-26T10:43:44;8.20;99.90
21459;DHT22;10891;49.350;19.386;2022-12-26T10:46:28;8.30;99.90
21459;DHT22;10891;49.350;19.386;2022-12-26T10:48:56;8.40;99.90
21459;DHT22;10891;49.350;19.386;2022-12-26T10:51:24;8.40;99.90
21459;DHT22;10891;49.350;19.386;2022-12-26T10:53:52;8.60;99.90
21459;DHT22;10891;49.350;19.386;2022-12-26T10:56:21;8.80;99.90
21459;DHT22;10891;49.350;19.386;2022-12-26T10:58:58;8.80;99.90
21459;DHT22;10891;49.350;19.386;2022-12-26T11:01:33;8.80;99.90
21459;DHT22;10891;49.350;19.386;2022-12-26T11:04:01;8.80;99.90
21459;DHT22;10891;49.350;19.386;2022-12-26T11:06:31;8.70;99.90
21459;DHT22;10891;49.350;19.386;2022-12-26T11:08:59;8.70;99.90
21459;DHT22;10891;49.350;19.386;2022-12-26T11:11:29;8.70;99.90
21459;DHT22;10891;49.350;19.386;2022-12-26T11:14:26;8.60;99.90
21459;DHT22;10891;49.350;19.386;2022-12-26T11:16:58;8.40;99.90
21459;DHT22;10891;49.350;19.386;2022-12-26T11:19:28;8.40;99.90
21459;DHT22;10891;49.350;19.386;2022-12-26T11:22:23;8.50;99.90
21459;DHT22;10891;49.350;19.386;2022-12-26T11:25:14;8.50;99.90
21459;DHT22;10891;49.350;19.386;2022-12-26T11:27:43;8.80;99.90
21459;DHT22;10891;49.350;19.386;2022-12-26T11:30:28;9.00;99.90
21459;DHT22;10891;49.350;19.386;2022-12-26T11:33:14;9.10;99.90
21459;DHT22;10891;49.350;19.386;2022-12-26T11:35:50;9.30;99.90
21459;DHT22;10891;49.350;19.386;2022-12-26T11:38:19;9.30;99.90
21459;DHT22;10891;49.350;19.386;2022-12-26T11:41:08;9.30;99.90
21459;DHT22;10891;49.350;19.386;2022-12-26T11:43:55;9.20;99.90
21459;DHT22;10891;49.350;19.386;2022-12-26T11:46:31;9.10;99.90
21459;DHT22;10891;49.350;19.386;2022-12-26T11:49:01;9.00;99.90
21459;DHT22;10891;49.350;19.386;2022-12-26T11:51:37;8.90;99.90
21459;DHT22;10891;49.350;19.386;2022-12-26T11:54:20;8.70;99.90
21459;DHT22;10891;49.350;19.386;2022-12-26T11:56:48;8.60;99.90
21459;DHT22;10891;49.350;19.386;2022-12-26T11:59:17;8.50;99.90
21459;DHT22;10891;49.350;19.386;2022-12-26T12:01:45;8.50;99.90
21459;DHT22;10891;49.350;19.386;2022-12-26T12:04:15;8.50;99.90
21459;DHT22;10891;49.350;19.386;2022-12-26T12:06:54;8.40;99.90
21459;DHT22;10891;49.350;19.386;2022-12-26T12:09:32;8.30;99.90
21459;DHT22;10891;49.350;19.386;2022-12-26T12:12:07;8.20;99.90
21459;DHT22;10891;49.350;19.386;2022-12-26T12:14:49;8.10;99.90
21459;DHT22;10891;49.350;19.386;2022-12-26T12:17:22;8.10;99.90
21459;DHT22;10891;49.350;19.386;2022-12-26T12:20:05;8.00;99.90
21459;DHT22;10891;49.350;19.386;2022-12-26T12:23:00;8.00;99.90
21459;DHT22;10891;49.350;19.386;2022-12-26T12:25:55;8.00;99.90
21459;DHT22;10891;49.350;19.386;2022-12-26T12:28:41;8.00;99.90
21459;DHT22;10891;49.350;19.386;2022-12-26T12:31:16;8.10;99.90
21459;DHT22;10891;49.350;19.386;2022-12-26T12:33:49;8.10;99.90
21459;DHT22;10891;49.350;19.386;2022-12-26T12:36:22;8.10;99.90
21459;DHT22;10891;49.350;19.386;2022-12-26T12:39:01;8.10;99.90
21459;DHT22;10891;49.350;19.386;2022-12-26T12:41:56;8.10;99.90
21459;DHT22;10891;49.350;19.386;2022-12-26T12:44:35;8.20;99.90
21459;DHT22;10891;49.350;19.386;2022-12-26T12:47:13;8.20;99.90
21459;DHT22;10891;49.350;19.386;2022-12-26T12:49:51;8.30;99.90
21459;DHT22;10891;49.350;19.386;2022-12-26T12:52:38;8.40;99.90
21459;DHT22;10891;49.350;19.386;2022-12-26T12:58:17;8.90;99.90
21459;DHT22;10891;49.350;19.386;2022-12-26T13:00:50;9.10;99.90
21459;DHT22;10891;49.350;19.386;2022-12-26T13:03:24;9.30;99.90
21459;DHT22;10891;49.350;19.386;2022-12-26T13:05:58;9.30;99.90
21459;DHT22;10891;49.350;19.386;2022-12-26T13:08:31;9.40;99.90
21459;DHT22;10891;49.350;19.386;2022-12-26T13:11:05;9.30;99.90
21459;DHT22;10891;49.350;19.386;2022-12-26T13:13:37;9.30;99.90
21459;DHT22;10891;49.350;19.386;2022-12-26T13:16:10;9.20;99.90
21459;DHT22;10891;49.350;19.386;2022-12-26T13:18:41;9.10;99.90
21459;DHT22;10891;49.350;19.386;2022-12-26T13:21:11;9.00;99.90
21459;DHT22;10891;49.350;19.386;2022-12-26T13:23:43;8.80;99.90
21459;DHT22;10891;49.350;19.386;2022-12-26T13:26:33;8.60;99.90
21459;DHT22;10891;49.350;19.386;2022-12-26T13:29:05;8.30;99.90
21459;DHT22;10891;49.350;19.386;2022-12-26T13:31:36;8.20;99.90
21459;DHT22;10891;49.350;19.386;2022-12-26T13:34:07;8.20;99.90
21459;DHT22;10891;49.350;19.386;2022-12-26T13:36:39;8.00;99.90
21459;DHT22;10891;49.350;19.386;2022-12-26T13:39:35;7.90;99.90
21459;DHT22;10891;49.350;19.386;2022-12-26T13:42:26;7.80;99.90
21459;DHT22;10891;49.350;19.386;2022-12-26T13:45:38;7.80;99.90
21459;DHT22;10891;49.350;19.386;2022-12-26T13:48:53;7.70;99.90
21459;DHT22;10891;49.350;19.386;2022-12-26T13:51:44;7.70;99.90
21459;DHT22;10891;49.350;19.386;2022-12-26T13:54:13;7.70;99.90
21459;DHT22;10891;49.350;19.386;2022-12-26T13:57:13;7.80;99.90
21459;DHT22;10891;49.350;19.386;2022-12-26T14:05:57;8.10;99.90
21459;DHT22;10891;49.350;19.386;2022-12-26T14:08:37;8.10;99.90
21459;DHT22;10891;49.350;19.386;2022-12-26T14:11:22;8.00;99.90
21459;DHT22;10891;49.350;19.386;2022-12-26T14:14:04;7.90;99.90
21459;DHT22;10891;49.350;19.386;2022-12-26T14:16:39;7.60;99.90
21459;DHT22;10891;49.350;19.386;2022-12-26T14:19:17;7.40;99.90
21459;DHT22;10891;49.350;19.386;2022-12-26T14:21:49;7.30;99.90
21459;DHT22;10891;49.350;19.386;2022-12-26T14:24:30;7.10;99.90
21459;DHT22;10891;49.350;19.386;2022-12-26T14:30:11;6.90;99.90
21459;DHT22;10891;49.350;19.386;2022-12-26T14:35:45;6.70;99.90
21459;DHT22;10891;49.350;19.386;2022-12-26T14:38:27;6.80;99.90
21459;DHT22;10891;49.350;19.386;2022-12-26T14:40:59;6.90;99.90
21459;DHT22;10891;49.350;19.386;2022-12-26T14:43:34;7.00;99.90
21459;DHT22;10891;49.350;19.386;2022-12-26T14:46:08;7.10;99.90
21459;DHT22;10891;49.350;19.386;2022-12-26T14:48:56;7.10;99.90
21459;DHT22;10891;49.350;19.386;2022-12-26T14:51:45;7.10;99.90
21459;DHT22;10891;49.350;19.386;2022-12-26T14:54:30;7.10;99.90
21459;DHT22;10891;49.350;19.386;2022-12-26T14:56:59;7.10;99.90
21459;DHT22;10891;49.350;19.386;2022-12-26T14:59:29;7.00;99.90
21459;DHT22;10891;49.350;19.386;2022-12-26T15:02:07;6.90;99.90
21459;DHT22;10891;49.350;19.386;2022-12-26T15:04:58;6.80;99.90
21459;DHT22;10891;49.350;19.386;2022-12-26T15:10:58;6.80;99.90
21459;DHT22;10891;49.350;19.386;2022-12-26T15:13:53;6.80;99.90
21459;DHT22;10891;49.350;19.386;2022-12-26T15:16:43;6.80;99.90
21459;DHT22;10891;49.350;19.386;2022-12-26T15:19:56;6.90;99.90
21459;DHT22;10891;49.350;19.386;2022-12-26T15:22:52;6.90;99.90
21459;DHT22;10891;49.350;19.386;2022-12-26T15:25:54;7.00;99.90
21459;DHT22;10891;49.350;19.386;2022-12-26T15:28:45;6.90;99.90
21459;DHT22;10891;49.350;19.386;2022-12-26T15:31:37;6.90;99.90
21459;DHT22;10891;49.350;19.386;2022-12-26T15:34:41;6.90;99.90
21459;DHT22;10891;49.350;19.386;2022-12-26T15:37:23;6.80;99.90
21459;DHT22;10891;49.350;19.386;2022-12-26T15:39:57;6.80;99.90
21459;DHT22;10891;49.350;19.386;2022-12-26T15:42:37;6.80;99.90
21459;DHT22;10891;49.350;19.386;2022-12-26T15:45:26;6.70;99.90
21459;DHT22;10891;49.350;19.386;2022-12-26T15:48:02;6.70;99.90
21459;DHT22;10891;49.350;19.386;2022-12-26T15:50:36;6.70;99.90
21459;DHT22;10891;49.350;19.386;2022-12-26T15:53:19;6.70;99.90
21459;DHT22;10891;49.350;19.386;2022-12-26T15:56:00;6.80;99.90
21459;DHT22;10891;49.350;19.386;2022-12-26T15:58:48;6.80;99.90
21459;DHT22;10891;49.350;19.386;2022-12-26T16:01:37;6.80;99.90
21459;DHT22;10891;49.350;19.386;2022-12-26T16:04:09;6.90;99.90
21459;DHT22;10891;49.350;19.386;2022-12-26T16:06:49;6.80;99.90
21459;DHT22;10891;49.350;19.386;2022-12-26T16:09:38;6.90;99.90
21459;DHT22;10891;49.350;19.386;2022-12-26T16:12:23;6.90;99.90
21459;DHT22;10891;49.350;19.386;2022-12-26T16:14:59;6.80;99.90
21459;DHT22;10891;49.350;19.386;2022-12-26T16:17:27;6.70;99.90
21459;DHT22;10891;49.350;19.386;2022-12-26T16:19:54;6.70;99.90
21459;DHT22;10891;49.350;19.386;2022-12-26T16:22:28;6.70;99.90
21459;DHT22;10891;49.350;19.386;2022-12-26T16:25:14;6.60;99.90
21459;DHT22;10891;49.350;19.386;2022-12-26T16:27:43;6.60;99.90
21459;DHT22;10891;49.350;19.386;2022-12-26T16:30:14;6.60;99.90
21459;DHT22;10891;49.350;19.386;2022-12-26T16:32:43;6.60;99.90
21459;DHT22;10891;49.350;19.386;2022-12-26T16:35:21;6.60;99.90
21459;DHT22;10891;49.350;19.386;2022-12-26T16:37:50;6.60;99.90
21459;DHT22;10891;49.350;19.386;2022-12-26T16:40:22;6.50;99.90
21459;DHT22;10891;49.350;19.386;2022-12-26T16:42:59;6.60;99.90